createdAt,value
2022-09-27T00:01:13.359Z,17.92
2022-09-27T00:03:40.917Z,17.30
2022-09-27T00:06:12.335Z,18.73
2022-09-27T00:08:39.318Z,14.65
2022-09-27T00:11:10.537Z,17.75
2022-09-27T00:13:37.437Z,19.13
2022-09-27T00:16:07.602Z,18.95
2022-09-27T00:18:35.182Z,18.75
2022-09-27T00:21:11.666Z,21.27
2022-09-27T00:23:39.449Z,18.88
2022-09-27T00:26:08.759Z,19.63
2022-09-27T00:28:35.892Z,17.98
2022-09-27T00:31:03.128Z,19.15
2022-09-27T00:33:30.102Z,21.50
2022-09-27T00:36:05.519Z,20.92
2022-09-27T00:38:33.013Z,20.02
2022-09-27T00:41:00.088Z,19.88
2022-09-27T00:43:27.060Z,22.42
2022-09-27T00:45:59.789Z,20.67
2022-09-27T00:48:31.737Z,19.15
2022-09-27T00:51:03.417Z,22.50
2022-09-27T00:53:51.695Z,23.08
2022-09-27T00:56:27.832Z,23.08
2022-09-27T00:59:04.115Z,20.48
2022-09-27T01:01:31.310Z,21.70
2022-09-27T01:04:12.302Z,25.42
2022-09-27T01:06:40.712Z,21.98
2022-09-27T01:09:10.987Z,24.75
2022-09-27T01:12:34.111Z,24.80
2022-09-27T01:15:40.587Z,26.80
2022-09-27T01:18:17.125Z,26.48
2022-09-27T01:21:20.516Z,24.50
2022-09-27T01:24:15.230Z,26.95
2022-09-27T01:27:23.397Z,27.10
2022-09-27T01:30:21.329Z,24.15
2022-09-27T01:33:36.045Z,25.83
2022-09-27T01:36:28.987Z,24.13
2022-09-27T01:39:21.313Z,26.25
2022-09-27T01:42:32.063Z,24.75
2022-09-27T01:45:36.454Z,25.55
2022-09-27T01:48:17.814Z,29.40
2022-09-27T01:50:56.038Z,28.63
2022-09-27T01:53:38.696Z,30.55
2022-09-27T01:56:37.424Z,29.40
2022-09-27T01:59:18.902Z,32.40
2022-09-27T02:01:54.873Z,27.60
2022-09-27T02:04:33.333Z,26.05
2022-09-27T02:07:24.833Z,27.00
2022-09-27T02:10:03.428Z,27.83
2022-09-27T02:12:48.979Z,26.40
2022-09-27T02:15:16.691Z,27.20
2022-09-27T02:18:11.061Z,25.17
2022-09-27T02:20:50.632Z,26.42
2022-09-27T02:23:43.847Z,23.50
2022-09-27T02:26:24.760Z,25.83
2022-09-27T02:29:07.027Z,28.60
2022-09-27T02:31:42.618Z,24.92
2022-09-27T02:34:24.311Z,23.65
2022-09-27T02:36:53.552Z,25.27
2022-09-27T02:39:21.322Z,21.40
2022-09-27T02:41:58.364Z,23.23
2022-09-27T02:44:27.419Z,23.63
2022-09-27T02:47:21.938Z,26.40
2022-09-27T02:50:33.672Z,24.73
2022-09-27T02:53:30.253Z,29.42
2022-09-27T02:56:25.919Z,24.52
2022-09-27T02:59:39.794Z,22.40
2022-09-27T03:03:08.130Z,26.05
2022-09-27T03:05:48.105Z,24.08
2022-09-27T03:08:16.895Z,27.90
2022-09-27T03:10:43.935Z,25.90
2022-09-27T03:13:12.321Z,23.35
2022-09-27T03:15:39.808Z,24.67
2022-09-27T03:18:07.211Z,27.50
2022-09-27T03:20:46.109Z,27.55
2022-09-27T03:23:20.525Z,26.95
2022-09-27T03:25:48.650Z,23.73
2022-09-27T03:28:15.866Z,25.45
2022-09-27T03:30:46.572Z,25.63
2022-09-27T03:33:23.010Z,27.20
2022-09-27T03:35:54.719Z,25.80
2022-09-27T03:38:21.631Z,26.67
2022-09-27T03:40:48.799Z,29.75
2022-09-27T03:43:16.186Z,28.63
2022-09-27T03:45:45.731Z,27.98
2022-09-27T03:48:12.648Z,28.65
2022-09-27T03:50:39.770Z,25.50
2022-09-27T03:53:06.914Z,26.15
2022-09-27T03:55:33.915Z,25.52
2022-09-27T03:58:01.234Z,26.75
2022-09-27T04:00:28.573Z,27.27
2022-09-27T04:02:56.483Z,27.70
2022-09-27T04:05:25.338Z,24.30
2022-09-27T04:07:59.348Z,23.98
2022-09-27T04:10:26.897Z,24.95
2022-09-27T04:12:54.342Z,26.13
2022-09-27T04:15:23.629Z,24.25
2022-09-27T04:17:51.072Z,26.67
2022-09-27T04:20:33.969Z,23.15
2022-09-27T04:23:05.219Z,23.50
2022-09-27T04:25:33.119Z,25.70
2022-09-27T04:28:06.254Z,26.13
2022-09-27T04:30:34.130Z,27.75
2022-09-27T04:33:13.461Z,27.10
2022-09-27T04:36:17.071Z,28.27
2022-09-27T04:39:02.520Z,28.10
2022-09-27T04:41:30.198Z,28.85
2022-09-27T04:43:59.569Z,31.10
2022-09-27T04:46:31.650Z,29.65
2022-09-27T04:49:00.260Z,28.95
2022-09-27T04:51:28.671Z,28.90
2022-09-27T04:53:58.220Z,30.10
2022-09-27T04:56:34.235Z,29.48
2022-09-27T04:59:06.795Z,30.52
2022-09-27T05:01:35.539Z,35.92
2022-09-27T05:04:05.381Z,30.38
2022-09-27T05:06:34.860Z,33.13
2022-09-27T05:09:07.711Z,32.85
2022-09-27T05:11:45.045Z,29.98
2022-09-27T05:14:34.901Z,33.10
2022-09-27T05:17:18.723Z,30.67
2022-09-27T05:20:05.478Z,30.75
2022-09-27T05:22:40.448Z,31.25
2022-09-27T05:25:08.500Z,33.05
2022-09-27T05:27:35.482Z,29.60
2022-09-27T05:30:02.355Z,33.63
2022-09-27T05:32:50.303Z,34.38
2022-09-27T05:35:26.574Z,33.30
2022-09-27T05:37:56.844Z,30.83
2022-09-27T05:40:41.921Z,34.80
2022-09-27T05:43:10.707Z,37.47
2022-09-27T05:45:38.263Z,39.60
2022-09-27T05:48:06.826Z,38.22
2022-09-27T05:50:40.474Z,40.38
2022-09-27T05:53:07.538Z,37.65
2022-09-27T05:55:34.942Z,38.38
2022-09-27T05:58:08.520Z,38.97
2022-09-27T06:00:44.165Z,37.88
2022-09-27T06:03:31.036Z,40.45
2022-09-27T06:06:26.592Z,39.47
2022-09-27T06:08:56.652Z,38.13
2022-09-27T06:11:27.652Z,40.05
2022-09-27T06:13:54.857Z,37.95
2022-09-27T06:16:22.818Z,35.50
2022-09-27T06:18:49.832Z,35.80
2022-09-27T06:21:17.717Z,37.13
2022-09-27T06:23:54.259Z,39.78
2022-09-27T06:26:27.367Z,34.83
2022-09-27T06:29:12.646Z,35.33
2022-09-27T06:31:46.262Z,32.22
2022-09-27T06:34:33.099Z,36.38
2022-09-27T06:37:00.030Z,33.95
2022-09-27T06:39:28.584Z,34.28
2022-09-27T06:42:24.589Z,32.35
2022-09-27T06:45:04.588Z,34.47
2022-09-27T06:48:13.074Z,31.05
2022-09-27T06:50:47.892Z,31.95
2022-09-27T06:53:17.021Z,32.13
2022-09-27T06:55:44.258Z,29.50
2022-09-27T06:58:30.941Z,28.65
2022-09-27T07:01:20.552Z,33.72
2022-09-27T07:04:20.046Z,23.27
2022-09-27T07:07:07.205Z,23.17
2022-09-27T07:09:40.282Z,22.75
2022-09-27T07:12:07.658Z,23.58
2022-09-27T07:14:35.322Z,21.60
2022-09-27T07:17:03.804Z,24.17
2022-09-27T07:19:38.596Z,24.52
2022-09-27T07:22:07.328Z,20.95
2022-09-27T07:24:34.421Z,23.10
2022-09-27T07:27:02.002Z,24.48
2022-09-27T07:29:28.953Z,25.02
2022-09-27T07:31:56.145Z,26.77
2022-09-27T07:34:23.060Z,22.83
2022-09-27T07:36:51.369Z,29.88
2022-09-27T07:39:18.685Z,27.55
2022-09-27T07:41:45.819Z,27.73
2022-09-27T07:44:16.340Z,24.08
2022-09-27T07:46:59.844Z,23.20
2022-09-27T07:49:46.716Z,25.42
2022-09-27T07:52:31.229Z,21.90
2022-09-27T07:55:18.439Z,27.50
2022-09-27T07:58:07.173Z,24.42
2022-09-27T08:00:34.255Z,25.80
2022-09-27T08:03:10.787Z,23.60
2022-09-27T08:05:38.726Z,25.10
2022-09-27T08:08:05.951Z,26.77
2022-09-27T08:10:33.987Z,25.90
2022-09-27T08:13:05.428Z,28.95
2022-09-27T08:15:36.970Z,26.20
2022-09-27T08:18:04.195Z,27.70
2022-09-27T08:21:00.572Z,24.65
2022-09-27T08:23:47.483Z,24.88
2022-09-27T08:26:21.813Z,22.67
2022-09-27T08:29:15.012Z,27.60
2022-09-27T08:31:52.112Z,24.10
2022-09-27T08:34:20.118Z,23.73
2022-09-27T08:36:47.084Z,22.40
2022-09-27T08:39:14.028Z,24.23
2022-09-27T08:41:57.278Z,25.45
2022-09-27T08:44:44.962Z,23.83
2022-09-27T08:47:27.895Z,19.23
2022-09-27T08:50:28.344Z,22.15
2022-09-27T08:53:29.438Z,19.40
2022-09-27T08:56:00.277Z,24.70
2022-09-27T08:58:59.659Z,21.17
2022-09-27T09:01:32.297Z,21.35
2022-09-27T09:04:04.431Z,22.90
2022-09-27T09:07:09.784Z,21.40
2022-09-27T09:10:45.706Z,22.02
2022-09-27T09:13:51.006Z,22.10
2022-09-27T09:16:56.317Z,22.85
2022-09-27T09:20:00.728Z,21.05
2022-09-27T09:23:12.071Z,22.52
2022-09-27T09:26:15.115Z,20.80
2022-09-27T09:29:00.472Z,22.45
2022-09-27T09:32:03.129Z,21.90
2022-09-27T09:35:24.000Z,21.65
2022-09-27T09:37:56.276Z,22.77
2022-09-27T09:40:35.945Z,21.67
2022-09-27T09:43:18.096Z,23.30
2022-09-27T09:45:51.912Z,26.55
2022-09-27T09:48:46.652Z,25.95
2022-09-27T09:51:28.460Z,26.73
2022-09-27T09:54:03.067Z,25.15
2022-09-27T09:56:42.157Z,29.40
2022-09-27T09:59:18.822Z,26.73
2022-09-27T10:01:49.217Z,28.23
2022-09-27T10:04:21.387Z,27.77
2022-09-27T10:06:49.466Z,29.65
2022-09-27T10:09:23.014Z,26.05
2022-09-27T10:12:10.545Z,26.98
2022-09-27T10:14:38.485Z,27.20
2022-09-27T10:17:12.205Z,27.77
2022-09-27T10:19:39.840Z,27.42
2022-09-27T10:22:32.721Z,30.30
2022-09-27T10:25:09.559Z,30.10
2022-09-27T10:28:02.836Z,30.75
2022-09-27T10:30:36.673Z,31.05
2022-09-27T10:33:19.799Z,28.25
2022-09-27T10:35:53.546Z,27.50
2022-09-27T10:38:35.070Z,31.13
2022-09-27T10:41:39.650Z,30.90
2022-09-27T10:44:32.716Z,28.10
2022-09-27T10:47:22.719Z,26.58
2022-09-27T10:53:22.654Z,25.75
2022-09-27T10:55:59.328Z,25.70
2022-09-27T10:58:34.999Z,25.50
2022-09-27T11:01:10.108Z,25.02
2022-09-27T11:04:00.397Z,26.48
2022-09-27T11:06:37.723Z,28.77
2022-09-27T11:09:48.456Z,30.02
2022-09-27T11:12:20.652Z,26.40
2022-09-27T11:15:17.677Z,25.80
2022-09-27T11:18:13.034Z,26.33
2022-09-27T11:20:52.625Z,24.20
2022-09-27T11:23:34.424Z,24.67
2022-09-27T11:27:05.825Z,25.98
2022-09-27T11:30:04.069Z,25.95
2022-09-27T11:33:42.241Z,22.75
2022-09-27T11:36:26.437Z,21.38
2022-09-27T11:39:23.321Z,21.85
2022-09-27T11:42:18.441Z,21.83
2022-09-27T11:46:14.169Z,19.88
2022-09-27T11:49:10.324Z,20.45
2022-09-27T11:52:03.553Z,20.80
2022-09-27T11:55:02.827Z,22.08
2022-09-27T11:57:47.207Z,34.95
2022-09-27T12:00:19.145Z,18.88
2022-09-27T12:03:26.636Z,17.98
2022-09-27T12:06:18.343Z,19.00
2022-09-27T12:09:02.921Z,18.25
2022-09-27T12:11:58.943Z,18.48
2022-09-27T12:14:37.571Z,20.85
2022-09-27T12:17:24.228Z,19.15
2022-09-27T12:19:56.237Z,16.17
2022-09-27T12:23:02.511Z,16.88
2022-09-27T12:25:54.757Z,16.33
2022-09-27T12:28:44.232Z,16.85
2022-09-27T12:31:30.938Z,16.23
2022-09-27T12:34:19.504Z,16.08
2022-09-27T12:37:43.642Z,14.77
2022-09-27T12:40:26.017Z,14.18
2022-09-27T12:43:09.099Z,14.23
2022-09-27T12:46:34.198Z,18.02
2022-09-27T12:49:23.688Z,19.52
2022-09-27T12:51:59.720Z,15.93
2022-09-27T12:54:39.086Z,15.00
2022-09-27T12:57:29.752Z,13.95
2022-09-27T13:00:14.894Z,13.18
2022-09-27T13:03:32.677Z,17.50
2022-09-27T13:06:17.665Z,14.43
2022-09-27T13:09:31.232Z,15.02
2022-09-27T13:12:19.077Z,13.70
2022-09-27T13:15:15.017Z,14.10
2022-09-27T13:17:42.532Z,12.77
2022-09-27T13:20:31.822Z,14.10
2022-09-27T13:23:18.021Z,13.68
2022-09-27T13:26:00.177Z,12.32
2022-09-27T13:28:59.285Z,11.70
2022-09-27T13:31:54.786Z,16.88
2022-09-27T13:34:48.475Z,11.65
2022-09-27T13:37:29.308Z,13.52
2022-09-27T13:40:31.665Z,11.50
2022-09-27T13:43:10.450Z,13.18
2022-09-27T13:47:00.164Z,11.55
2022-09-27T13:49:38.685Z,13.68
2022-09-27T13:52:27.229Z,16.60
2022-09-27T13:55:40.274Z,11.45
2022-09-27T13:58:41.994Z,13.45
2022-09-27T14:01:47.025Z,11.38
2022-09-27T14:04:26.284Z,11.57
2022-09-27T14:07:00.151Z,10.35
2022-09-27T14:09:33.301Z,14.40
2022-09-27T14:12:33.000Z,13.52
2022-09-27T14:15:04.568Z,9.27
2022-09-27T14:17:33.177Z,11.00
2022-09-27T14:20:03.113Z,8.63
2022-09-27T14:22:31.060Z,11.27
2022-09-27T14:25:17.872Z,12.23
2022-09-27T14:27:47.830Z,8.98
2022-09-27T14:30:37.638Z,8.55
2022-09-27T14:33:34.315Z,9.70
2022-09-27T14:36:49.461Z,9.70
2022-09-27T14:39:31.296Z,10.23
2022-09-27T14:42:00.762Z,10.32
2022-09-27T14:44:28.594Z,11.75
2022-09-27T14:47:28.366Z,11.18
2022-09-27T14:50:18.986Z,12.73
2022-09-27T14:52:47.465Z,9.98
2022-09-27T14:55:22.153Z,12.73
2022-09-27T14:58:00.655Z,15.85
2022-09-27T15:00:32.424Z,14.27
2022-09-27T15:03:03.322Z,11.63
2022-09-27T15:05:33.274Z,10.95
2022-09-27T15:08:06.559Z,11.07
2022-09-27T15:10:36.080Z,12.43
2022-09-27T15:13:06.056Z,12.88
2022-09-27T15:15:39.883Z,10.15
2022-09-27T15:18:42.177Z,11.15
2022-09-27T15:21:29.435Z,12.02
2022-09-27T15:23:56.812Z,12.35
2022-09-27T15:26:42.577Z,12.98
2022-09-27T15:29:24.968Z,16.13
2022-09-27T15:32:07.139Z,19.38
2022-09-27T15:34:35.723Z,12.93
2022-09-27T15:37:05.113Z,13.50
2022-09-27T15:39:40.535Z,17.05
2022-09-27T15:42:17.427Z,16.92
2022-09-27T15:44:58.241Z,20.15
2022-09-27T15:47:38.698Z,19.80
2022-09-27T15:50:31.613Z,14.05
2022-09-27T15:52:58.613Z,15.30
2022-09-27T15:55:28.231Z,12.82
2022-09-27T15:58:01.998Z,13.00
2022-09-27T16:00:29.832Z,13.40
2022-09-27T16:02:57.069Z,17.42
2022-09-27T16:05:24.056Z,12.93
2022-09-27T16:07:51.744Z,15.80
2022-09-27T16:10:30.697Z,18.92
2022-09-27T16:12:57.653Z,16.52
2022-09-27T16:15:24.707Z,18.45
2022-09-27T16:17:51.617Z,15.45
2022-09-27T16:20:25.127Z,15.60
2022-09-27T16:22:56.114Z,22.08
2022-09-27T16:25:23.618Z,19.15
2022-09-27T16:27:52.477Z,19.50
2022-09-27T16:30:20.842Z,17.95
2022-09-27T16:32:49.174Z,18.85
2022-09-27T16:35:19.222Z,17.77
2022-09-27T16:37:46.545Z,20.00
2022-09-27T16:40:15.235Z,18.38
2022-09-27T16:42:43.276Z,18.90
2022-09-27T16:45:14.570Z,17.45
2022-09-27T16:47:44.454Z,16.25
2022-09-27T16:50:32.198Z,19.25
2022-09-27T16:53:00.266Z,16.63
2022-09-27T16:55:29.383Z,16.58
2022-09-27T16:57:59.081Z,15.60
2022-09-27T17:00:27.175Z,14.13
2022-09-27T17:02:54.730Z,14.63
2022-09-27T17:05:23.030Z,16.60
2022-09-27T17:07:52.029Z,16.65
2022-09-27T17:10:20.574Z,17.08
2022-09-27T17:12:48.172Z,18.77
2022-09-27T17:15:16.618Z,17.10
2022-09-27T17:17:45.279Z,19.25
2022-09-27T17:20:12.514Z,17.10
2022-09-27T17:22:39.392Z,20.48
2022-09-27T17:25:06.964Z,15.13
2022-09-27T17:27:33.908Z,17.73
2022-09-27T17:30:00.897Z,19.90
2022-09-27T17:32:27.811Z,22.52
2022-09-27T17:34:55.954Z,22.90
2022-09-27T17:37:22.929Z,24.60
2022-09-27T17:39:49.807Z,24.05
2022-09-27T17:42:18.941Z,27.52
2022-09-27T17:44:46.506Z,25.80
2022-09-27T17:47:32.288Z,25.42
2022-09-27T17:50:34.299Z,27.05
2022-09-27T17:53:01.186Z,29.17
2022-09-27T17:55:28.149Z,30.40
2022-09-27T17:57:55.121Z,27.58
2022-09-27T18:00:22.197Z,28.63
2022-09-27T18:02:49.217Z,35.45
2022-09-27T18:05:18.353Z,39.53
2022-09-27T18:07:45.271Z,41.53
2022-09-27T18:10:12.220Z,33.22
2022-09-27T18:12:39.594Z,31.10
2022-09-27T18:15:08.082Z,29.15
2022-09-27T18:17:36.355Z,32.97
2022-09-27T18:20:04.569Z,31.30
2022-09-27T18:22:31.674Z,26.95
2022-09-27T18:24:58.588Z,26.52
2022-09-27T18:27:25.481Z,23.38
2022-09-27T18:29:52.755Z,34.88
2022-09-27T18:35:04.583Z,26.67
2022-09-27T18:37:31.452Z,21.83
2022-09-27T18:39:58.325Z,19.77
2022-09-27T18:42:25.209Z,22.80
2022-09-27T18:44:52.070Z,21.63
2022-09-27T18:47:19.298Z,29.20
2022-09-27T18:49:46.237Z,31.98
2022-09-27T18:52:13.145Z,30.00
2022-09-27T18:54:41.011Z,28.88
2022-09-27T18:57:07.912Z,36.50
2022-09-27T18:59:34.962Z,34.25
2022-09-27T19:02:01.993Z,35.75
2022-09-27T19:04:28.930Z,31.80
2022-09-27T19:06:56.910Z,37.13
2022-09-27T19:09:26.688Z,31.83
2022-09-27T19:11:53.883Z,28.35
2022-09-27T19:14:23.355Z,25.80
2022-09-27T19:16:50.739Z,26.33
2022-09-27T19:19:19.500Z,27.90
2022-09-27T19:21:47.270Z,36.35
2022-09-27T19:24:15.687Z,32.47
2022-09-27T19:26:42.853Z,37.67
2022-09-27T19:29:13.804Z,30.77
2022-09-27T19:31:42.254Z,26.48
2022-09-27T19:34:09.275Z,24.67
2022-09-27T19:36:36.169Z,25.55
2022-09-27T19:39:03.390Z,23.45
2022-09-27T19:41:30.307Z,19.48
2022-09-27T19:43:57.315Z,21.35
2022-09-27T19:46:26.561Z,22.40
2022-09-27T19:48:55.255Z,18.15
2022-09-27T19:51:25.336Z,16.35
2022-09-27T19:53:53.554Z,20.33
2022-09-27T19:56:22.038Z,20.77
2022-09-27T19:58:49.568Z,18.13
2022-09-27T20:01:23.015Z,19.25
2022-09-27T20:03:53.176Z,19.20
2022-09-27T20:06:21.779Z,16.05
2022-09-27T20:08:49.005Z,15.93
2022-09-27T20:11:22.084Z,16.80
2022-09-27T20:13:50.517Z,17.98
2022-09-27T20:16:23.846Z,15.07
2022-09-27T20:18:56.745Z,18.50
2022-09-27T20:21:32.422Z,18.33
2022-09-27T20:24:01.957Z,19.23
2022-09-27T20:26:31.007Z,17.88
2022-09-27T20:29:00.408Z,18.05
2022-09-27T20:31:37.092Z,17.17
2022-09-27T20:34:13.669Z,18.23
2022-09-27T20:36:44.249Z,16.30
2022-09-27T20:39:15.750Z,19.73
2022-09-27T20:41:46.762Z,20.98
2022-09-27T20:44:19.779Z,22.98
2022-09-27T20:46:47.793Z,22.25
2022-09-27T20:49:18.527Z,18.00
2022-09-27T20:51:51.281Z,19.83
2022-09-27T20:54:18.759Z,19.35
2022-09-27T20:56:47.577Z,18.17
2022-09-27T20:59:20.747Z,19.38
2022-09-27T21:01:50.393Z,17.45
2022-09-27T21:04:19.163Z,20.98
2022-09-27T21:06:46.483Z,18.58
2022-09-27T21:09:18.748Z,18.33
2022-09-27T21:11:51.930Z,20.98
2022-09-27T21:14:19.060Z,19.90
2022-09-27T21:16:46.361Z,26.77
2022-09-27T21:19:13.943Z,21.60
2022-09-27T21:21:40.987Z,18.92
2022-09-27T21:24:07.873Z,21.05
2022-09-27T21:26:34.889Z,20.08
2022-09-27T21:29:07.600Z,24.52
2022-09-27T21:31:35.900Z,29.05
2022-09-27T21:34:06.180Z,27.83
2022-09-27T21:36:37.323Z,22.70
2022-09-27T21:39:08.925Z,25.98
2022-09-27T21:41:36.196Z,22.77
2022-09-27T21:44:05.362Z,22.17
2022-09-27T21:46:32.412Z,23.05
2022-09-27T21:49:04.007Z,23.42
2022-09-27T21:51:36.602Z,20.33
2022-09-27T21:54:08.370Z,19.25
2022-09-27T21:56:38.929Z,25.88
2022-09-27T21:59:07.782Z,19.92
2022-09-27T22:01:35.466Z,19.52
2022-09-27T22:04:05.609Z,20.88
2022-09-27T22:06:36.396Z,20.92
2022-09-27T22:09:09.230Z,20.13
2022-09-27T22:11:44.439Z,18.50
2022-09-27T22:14:12.922Z,20.95
2022-09-27T22:16:39.982Z,19.23
2022-09-27T22:19:07.237Z,23.20
2022-09-27T22:21:37.189Z,19.90
2022-09-27T22:24:08.501Z,19.02
2022-09-27T22:26:38.665Z,20.98
2022-09-27T22:29:07.156Z,19.65
2022-09-27T22:31:34.694Z,24.50
2022-09-27T22:34:05.287Z,21.58
2022-09-27T22:36:33.829Z,21.67
2022-09-27T22:39:01.121Z,20.73
2022-09-27T22:41:29.466Z,23.08
2022-09-27T22:43:56.549Z,23.27
2022-09-27T22:46:23.635Z,24.63
2022-09-27T22:48:50.799Z,20.65
2022-09-27T22:51:18.768Z,21.55
2022-09-27T22:53:46.001Z,17.60
2022-09-27T22:56:17.210Z,18.70
2022-09-27T22:58:45.136Z,21.83
2022-09-27T23:01:21.853Z,21.00
2022-09-27T23:03:52.559Z,20.55
2022-09-27T23:06:21.783Z,25.10
2022-09-27T23:08:49.901Z,21.45
2022-09-27T23:11:20.220Z,20.95
2022-09-27T23:13:49.140Z,22.65
2022-09-27T23:16:20.294Z,20.63
2022-09-27T23:18:47.912Z,26.42
2022-09-27T23:21:17.037Z,23.67
2022-09-27T23:23:46.529Z,22.73
2022-09-27T23:26:16.184Z,25.08
2022-09-27T23:28:43.964Z,26.50
2022-09-27T23:31:17.060Z,24.05
2022-09-27T23:33:48.920Z,26.08
2022-09-27T23:36:19.323Z,25.88
2022-09-27T23:38:48.555Z,24.23
2022-09-27T23:41:17.141Z,22.55
2022-09-27T23:43:44.627Z,23.75
2022-09-27T23:46:12.392Z,23.95
2022-09-27T23:48:40.024Z,22.85
2022-09-27T23:51:10.610Z,23.98
2022-09-27T23:53:38.955Z,20.23
2022-09-27T23:56:15.255Z,20.55
2022-09-27T23:58:45.500Z,18.95
